Time;durP1;ratioP1;P1;durP2;ratioP2;P2;SDS_P1;SDS_P2;PMS_P1;PMS_P2;Temp;Humidity;BMP_temperature;BMP_pressure;BME280_temperature;BME280_humidity;BME280_pressure;Samples;Min_cycle;Max_cycle;Signal;HPM_P1;HPM_P2
2023/12/13 00:00:00;;;;;;;14.00;9.90;;;8.90;82.50;;;;;;5051937;28;20037;-71
2023/12/13 00:02:26;;;;;;;;;;;8.90;82.80;;;;;;5052150;28;20052;-73
2023/12/13 00:04:52;;;;;;;19.80;11.93;;;8.90;83.20;;;;;;5052966;28;19960;-74
2023/12/13 00:07:18;;;;;;;14.23;10.30;;;8.90;83.30;;;;;;5053124;28;20044;-71
2023/12/13 00:09:44;;;;;;;12.27;8.82;;;8.80;83.40;;;;;;5053185;28;20041;-71
2023/12/13 00:12:10;;;;;;;11.75;7.07;;;8.80;83.60;;;;;;5034764;28;20044;-73
2023/12/13 00:14:37;;;;;;;18.83;11.05;;;8.80;83.50;;;;;;5053061;28;20060;-70
2023/12/13 00:17:04;;;;;;;20.73;10.23;;;8.80;83.50;;;;;;5053126;28;20051;-73
2023/12/13 00:19:30;;;;;;;12.40;8.73;;;8.90;83.50;;;;;;5051869;28;20029;-71
2023/12/13 00:21:56;;;;;;;9.27;7.30;;;8.90;83.40;;;;;;5051047;28;20402;-71
2023/12/13 00:24:22;;;;;;;;;;;8.80;83.30;;;;;;5052194;28;20037;-70
2023/12/13 00:26:49;;;;;;;13.32;6.95;;;8.80;83.10;;;;;;5052551;28;19944;-73
2023/12/13 00:29:15;;;;;;;17.02;7.47;;;8.80;82.90;;;;;;5035113;28;20156;-71
2023/12/13 00:31:41;;;;;;;14.93;7.78;;;8.80;83.50;;;;;;5052145;28;20082;-73
2023/12/13 00:34:07;;;;;;;15.73;9.07;;;8.80;83.70;;;;;;5052797;28;20441;-71
2023/12/13 00:36:33;;;;;;;9.70;5.95;;;8.80;83.80;;;;;;5052629;28;20033;-71
2023/12/13 00:38:59;;;;;;;15.68;7.38;;;8.80;83.70;;;;;;5051369;28;20159;-73
2023/12/13 00:41:25;;;;;;;13.55;9.30;;;8.90;83.70;;;;;;5052180;28;20029;-70
2023/12/13 00:43:51;;;;;;;16.75;9.93;;;8.90;83.60;;;;;;5052435;28;20041;-71
2023/12/13 00:46:19;;;;;;;8.50;6.90;;;8.80;83.80;;;;;;5052447;28;20033;-72
2023/12/13 00:48:47;;;;;;;9.15;8.18;;;8.80;83.90;;;;;;5051210;28;20446;-70
2023/12/13 00:51:31;;;;;;;18.92;9.93;;;8.80;83.50;;;;;;5052025;28;20033;-72
2023/12/13 00:53:57;;;;;;;11.55;6.88;;;8.80;84.40;;;;;;5052165;28;20037;-73
2023/12/13 00:56:24;;;;;;;8.02;6.35;;;8.80;84.10;;;;;;5050934;28;20110;-73
2023/12/13 00:58:50;;;;;;;;;;;8.80;84.10;;;;;;5053187;28;20033;-73
2023/12/13 01:01:16;;;;;;;8.07;5.22;;;8.80;83.90;;;;;;5051751;28;20012;-73
2023/12/13 01:03:42;;;;;;;13.55;8.98;;;8.90;83.90;;;;;;5052021;28;20044;-71
2023/12/13 01:06:09;;;;;;;9.73;6.22;;;8.90;84.00;;;;;;5050781;28;20486;-74
2023/12/13 01:08:37;;;;;;;11.73;6.00;;;8.80;83.90;;;;;;5050930;28;20110;-73
2023/12/13 01:11:25;;;;;;;9.35;5.97;;;8.80;84.10;;;;;;5049707;28;20091;-73
2023/12/13 01:13:51;;;;;;;7.68;5.07;;;8.80;84.40;;;;;;5052278;28;20363;-71
2023/12/13 01:16:17;;;;;;;8.98;6.80;;;8.90;84.60;;;;;;5052007;28;20040;-71
2023/12/13 01:18:43;;;;;;;12.65;6.90;;;8.80;84.40;;;;;;5051990;28;20041;-73
2023/12/13 01:21:09;;;;;;;7.22;5.10;;;8.90;84.40;;;;;;5033594;28;20041;-73
2023/12/13 01:23:35;;;;;;;12.77;6.15;;;8.80;84.10;;;;;;5050670;28;20045;-71
2023/12/13 01:26:01;;;;;;;5.47;4.38;;;8.80;84.10;;;;;;5050731;28;20037;-73
2023/12/13 01:28:27;;;;;;;9.38;6.28;;;8.90;84.10;;;;;;5051833;28;20423;-71
2023/12/13 01:30:53;;;;;;;5.57;3.30;;;8.90;84.10;;;;;;5050205;28;20059;-73
2023/12/13 01:33:19;;;;;;;14.07;8.55;;;8.90;84.30;;;;;;5052046;28;20609;-73
2023/12/13 01:35:45;;;;;;;7.38;4.07;;;8.90;84.50;;;;;;5051490;28;20076;-71
2023/12/13 01:38:11;;;;;;;9.75;6.10;;;8.90;84.50;;;;;;5034134;28;20033;-73
2023/12/13 01:40:37;;;;;;;10.55;6.00;;;8.90;84.40;;;;;;5051201;28;20083;-74
2023/12/13 01:43:03;;;;;;;10.43;4.75;;;8.90;84.20;;;;;;5052015;28;20045;-73
2023/12/13 01:45:29;;;;;;;8.82;6.40;;;8.90;84.40;;;;;;5051390;28;20061;-73
2023/12/13 01:47:56;;;;;;;10.98;8.23;;;8.90;84.60;;;;;;5050662;28;20509;-73
2023/12/13 01:50:25;;;;;;;7.40;5.03;;;8.90;84.70;;;;;;5051051;28;20029;-73
2023/12/13 01:52:53;;;;;;;4.60;2.88;;;8.90;84.50;;;;;;5051715;28;20033;-73
2023/12/13 01:55:20;;;;;;;9.75;6.05;;;8.90;84.20;;;;;;5033522;28;20025;-70
2023/12/13 01:57:46;;;;;;;7.40;4.32;;;8.90;84.10;;;;;;5050552;28;20029;-73
2023/12/13 02:00:13;;;;;;;7.97;6.65;;;8.90;83.60;;;;;;5049821;28;20032;-73
2023/12/13 02:02:40;;;;;;;7.93;6.57;;;9.00;83.90;;;;;;5051789;28;20029;-73
2023/12/13 02:05:08;;;;;;;8.43;5.38;;;9.00;84.00;;;;;;5050054;28;20060;-71
2023/12/13 02:07:36;;;;;;;8.07;5.57;;;9.00;83.80;;;;;;5050512;28;20053;-70
2023/12/13 02:10:02;;;;;;;18.20;6.68;;;9.00;83.70;;;;;;5050256;28;20047;-73
2023/12/13 02:12:28;;;;;;;;;;;9.00;83.60;;;;;;5051854;28;20033;-73
2023/12/13 02:14:55;;;;;;;7.40;6.50;;;9.10;83.70;;;;;;5050104;28;19921;-73
2023/12/13 02:17:21;;;;;;;12.95;5.38;;;9.00;83.90;;;;;;5050341;28;20025;-71
2023/12/13 02:19:47;;;;;;;13.45;6.10;;;8.90;84.40;;;;;;5050410;28;20429;-73
2023/12/13 02:22:13;;;;;;;17.08;5.63;;;8.90;84.40;;;;;;5053548;28;20033;-70
2023/12/13 02:24:41;;;;;;;8.23;5.00;;;9.00;84.30;;;;;;5053865;28;20048;-72
2023/12/13 02:27:07;;;;;;;10.68;7.03;;;9.00;84.20;;;;;;5054978;28;20087;-71
2023/12/13 02:29:34;;;;;;;10.02;8.48;;;9.00;84.40;;;;;;5053847;28;20037;-71
2023/12/13 02:32:00;;;;;;;16.70;10.60;;;9.00;84.60;;;;;;5052955;28;20095;-71
2023/12/13 02:34:26;;;;;;;9.23;6.13;;;9.00;85.10;;;;;;5055103;28;20059;-70
2023/12/13 02:36:52;;;;;;;9.40;6.82;;;8.90;85.00;;;;;;5053630;28;20037;-71
2023/12/13 02:39:18;;;;;;;;;;;9.00;84.90;;;;;;5054364;28;20375;-71
2023/12/13 02:41:44;;;;;;;10.93;6.20;;;9.00;84.60;;;;;;5054368;28;20167;-71
2023/12/13 02:44:10;;;;;;;8.90;6.28;;;9.00;84.40;;;;;;5054707;28;20040;-71
2023/12/13 02:46:36;;;;;;;8.52;5.90;;;9.00;84.60;;;;;;5054726;28;20033;-71
2023/12/13 02:49:02;;;;;;;10.25;7.78;;;9.00;84.60;;;;;;5054855;28;20036;-73
2023/12/13 02:51:28;;;;;;;12.48;6.88;;;9.00;84.60;;;;;;5052996;28;20029;-72
2023/12/13 02:53:54;;;;;;;10.20;6.05;;;8.90;84.90;;;;;;5054265;28;20410;-72
2023/12/13 02:56:20;;;;;;;13.57;8.35;;;8.90;84.90;;;;;;5052931;28;20055;-70
2023/12/13 02:58:46;;;;;;;18.98;9.30;;;8.90;85.00;;;;;;5055048;28;20037;-71
2023/12/13 03:01:12;;;;;;;4.82;3.05;;;9.00;85.30;;;;;;5054388;28;20079;-73
2023/12/13 03:03:38;;;;;;;9.38;7.68;;;8.90;85.20;;;;;;5054208;28;20041;-73
2023/12/13 03:06:05;;;;;;;9.13;5.72;;;9.00;85.00;;;;;;5053177;28;20552;-71
2023/12/13 03:08:31;;;;;;;15.20;9.00;;;9.00;84.70;;;;;;5053018;28;20041;-73
2023/12/13 03:10:57;;;;;;;7.65;5.63;;;9.00;84.80;;;;;;5053793;28;20025;-71
2023/12/13 03:13:23;;;;;;;8.07;5.88;;;9.00;84.70;;;;;;5052963;28;20048;-72
2023/12/13 03:15:49;;;;;;;;;;;9.00;84.70;;;;;;5054533;28;20033;-71
2023/12/13 03:18:15;;;;;;;11.23;7.82;;;9.00;84.60;;;;;;5036398;28;20452;-71
2023/12/13 03:20:42;;;;;;;8.13;6.95;;;9.00;84.60;;;;;;5053534;28;20033;-73
2023/12/13 03:23:10;;;;;;;7.75;6.72;;;9.00;84.80;;;;;;5053947;28;20041;-72
2023/12/13 03:25:36;;;;;;;10.70;7.55;;;9.00;85.00;;;;;;5052558;28;20036;-71
2023/12/13 03:28:02;;;;;;;13.80;6.63;;;9.00;85.00;;;;;;5053950;28;20395;-71
2023/12/13 03:30:28;;;;;;;;;;;9.00;85.00;;;;;;5052698;28;20112;-72
2023/12/13 03:32:54;;;;;;;7.53;4.90;;;9.00;85.10;;;;;;5053392;28;19967;-73
2023/12/13 03:35:20;;;;;;;5.18;3.28;;;9.00;84.90;;;;;;5053391;28;20032;-71
2023/12/13 03:37:47;;;;;;;7.82;5.72;;;9.00;84.80;;;;;;5053936;28;20059;-73
2023/12/13 03:40:14;;;;;;;5.55;4.32;;;9.10;85.00;;;;;;5052864;28;20036;-73
2023/12/13 03:42:40;;;;;;;9.23;6.90;;;9.00;84.80;;;;;;5053739;28;20116;-73
2023/12/13 03:45:06;;;;;;;;;;;9.00;85.60;;;;;;5054316;28;20119;-73
2023/12/13 03:47:32;;;;;;;7.95;5.10;;;9.00;85.20;;;;;;5053582;28;20335;-70
2023/12/13 03:49:58;;;;;;;11.82;7.15;;;9.00;85.60;;;;;;5052398;28;20033;-71
2023/12/13 03:52:24;;;;;;;14.00;8.35;;;9.00;85.40;;;;;;5052926;28;20094;-71
2023/12/13 03:54:50;;;;;;;6.82;6.18;;;8.90;85.50;;;;;;5053604;28;20044;-71
2023/12/13 03:57:16;;;;;;;6.57;4.65;;;9.00;85.40;;;;;;5052124;28;20083;-71
2023/12/13 03:59:42;;;;;;;8.15;4.93;;;8.90;85.50;;;;;;5053806;28;20037;-71
2023/12/13 04:02:08;;;;;;;12.00;6.75;;;8.90;85.50;;;;;;5053053;28;20043;-73
2023/12/13 04:04:34;;;;;;;11.10;7.32;;;8.90;85.60;;;;;;5053139;28;20049;-73
2023/12/13 04:07:00;;;;;;;5.75;3.60;;;9.00;85.50;;;;;;5051907;28;20044;-71
2023/12/13 04:09:26;;;;;;;8.82;6.53;;;9.00;85.40;;;;;;5053349;28;20423;-71
2023/12/13 04:11:52;;;;;;;9.60;6.35;;;9.00;85.30;;;;;;5052808;28;20030;-73
2023/12/13 04:14:19;;;;;;;5.13;4.55;;;8.90;85.30;;;;;;5051495;28;20556;-73
2023/12/13 04:16:45;;;;;;;11.70;5.30;;;8.90;85.60;;;;;;5052965;28;20036;-71
2023/12/13 04:19:11;;;;;;;27.45;10.65;;;9.00;85.70;;;;;;5053092;28;20041;-71
2023/12/13 04:21:39;;;;;;;15.25;7.57;;;9.00;85.50;;;;;;5034497;28;20041;-73
2023/12/13 04:24:06;;;;;;;5.95;4.88;;;9.00;85.40;;;;;;5051435;28;20589;-73
2023/12/13 04:26:32;;;;;;;5.05;4.00;;;9.00;85.00;;;;;;5053059;28;20105;-72
2023/12/13 04:28:58;;;;;;;10.20;5.80;;;9.00;85.50;;;;;;5052884;28;20049;-72
2023/12/13 04:31:24;;;;;;;9.60;4.15;;;9.00;85.30;;;;;;5052315;28;20095;-73
2023/12/13 04:33:50;;;;;;;7.45;5.05;;;9.00;85.50;;;;;;5051279;28;20044;-73
2023/12/13 04:36:16;;;;;;;11.30;6.00;;;9.00;85.30;;;;;;5034703;28;20517;-72
2023/12/13 04:38:42;;;;;;;9.05;4.30;;;9.00;85.10;;;;;;5034885;28;20498;-73
2023/12/13 04:41:09;;;;;;;10.73;6.03;;;9.00;85.00;;;;;;5052027;28;20086;-73
2023/12/13 04:43:34;;;;;;;;;;;9.10;85.00;;;;;;5051937;28;20041;-73
2023/12/13 04:46:00;;;;;;;11.15;7.30;;;9.10;84.90;;;;;;5051336;28;19916;-71
2023/12/13 04:48:26;;;;;;;7.95;6.80;;;9.10;84.80;;;;;;5052476;28;20044;-71
2023/12/13 04:50:52;;;;;;;9.32;7.40;;;9.10;84.80;;;;;;5051936;28;20032;-73
2023/12/13 04:53:19;;;;;;;10.00;6.30;;;9.10;84.70;;;;;;5052323;28;20501;-73
2023/12/13 04:55:45;;;;;;;7.88;5.60;;;9.10;84.70;;;;;;5052061;28;20033;-72
2023/12/13 04:58:11;;;;;;;12.07;7.38;;;9.00;84.80;;;;;;5050986;28;20485;-71
2023/12/13 05:00:37;;;;;;;7.97;6.55;;;9.00;85.00;;;;;;5051890;28;20037;-73
2023/12/13 05:03:03;;;;;;;9.77;5.43;;;9.00;85.00;;;;;;5052241;28;20094;-72
2023/12/13 05:05:29;;;;;;;10.18;4.72;;;9.00;84.90;;;;;;5050820;28;20049;-73
2023/12/13 05:07:55;;;;;;;7.20;5.30;;;9.10;85.00;;;;;;5052166;28;20048;-73
2023/12/13 05:10:21;;;;;;;8.27;5.40;;;9.10;84.80;;;;;;5051563;28;20045;-71
2023/12/13 05:12:47;;;;;;;10.27;5.60;;;9.10;84.70;;;;;;5050991;28;20399;-73
2023/12/13 05:15:13;;;;;;;13.85;7.30;;;9.10;84.70;;;;;;5050367;28;20040;-71
2023/12/13 05:17:39;;;;;;;;;;;9.10;84.70;;;;;;5034888;28;20033;-73
2023/12/13 05:20:06;;;;;;;8.60;4.82;;;9.10;84.50;;;;;;5051793;28;19990;-73
2023/12/13 05:22:32;;;;;;;22.10;12.98;;;9.10;84.10;;;;;;5034330;28;20040;-73
2023/12/13 05:24:59;;;;;;;6.00;4.07;;;9.10;84.30;;;;;;5050527;28;20044;-71
2023/12/13 05:27:25;;;;;;;9.50;5.05;;;9.20;84.30;;;;;;5051870;28;20037;-71
2023/12/13 05:29:51;;;;;;;6.75;5.45;;;9.20;84.40;;;;;;5052480;28;20033;-73
2023/12/13 05:32:17;;;;;;;7.75;3.33;;;9.20;84.50;;;;;;5050143;28;20040;-73
2023/12/13 05:34:43;;;;;;;9.45;4.63;;;9.20;84.50;;;;;;5050723;28;20033;-73
2023/12/13 05:37:09;;;;;;;6.45;4.75;;;9.10;84.60;;;;;;5034195;28;20037;-72
2023/12/13 05:39:35;;;;;;;12.95;7.28;;;9.10;84.70;;;;;;5051803;28;20406;-71
2023/12/13 05:42:02;;;;;;;15.90;10.73;;;9.20;85.00;;;;;;5051196;28;20036;-71
2023/12/13 05:44:29;;;;;;;11.40;6.07;;;9.10;85.40;;;;;;5050104;28;20482;-73
2023/12/13 05:46:55;;;;;;;11.00;7.28;;;9.10;85.60;;;;;;5051801;28;20393;-71
2023/12/13 05:49:21;;;;;;;9.13;6.53;;;9.10;85.30;;;;;;5051820;28;20033;-73
2023/12/13 05:51:47;;;;;;;9.32;4.93;;;9.10;85.20;;;;;;5033384;28;20033;-71
2023/12/13 05:54:13;;;;;;;12.88;6.95;;;9.10;85.00;;;;;;5050637;28;20294;-73
2023/12/13 05:56:39;;;;;;;21.13;10.75;;;9.10;84.90;;;;;;5052037;28;20229;-72
2023/12/13 05:59:05;;;;;;;21.55;9.38;;;9.10;85.00;;;;;;5037261;28;20082;-73
2023/12/13 06:01:31;;;;;;;7.13;5.07;;;9.20;85.00;;;;;;5055141;28;20051;-73
2023/12/13 06:03:57;;;;;;;13.63;5.28;;;9.10;85.20;;;;;;5053808;28;20060;-73
2023/12/13 06:06:23;;;;;;;17.13;9.38;;;9.10;85.10;;;;;;5054219;28;20030;-71
2023/12/13 06:08:49;;;;;;;11.70;6.32;;;9.10;84.80;;;;;;5055472;28;20037;-73
2023/12/13 06:11:15;;;;;;;11.75;8.20;;;9.20;84.70;;;;;;5054762;28;20394;-73
2023/12/13 06:13:41;;;;;;;17.00;7.43;;;9.20;84.60;;;;;;5055441;28;20037;-71
2023/12/13 06:16:12;;;;;;;10.38;6.45;;;9.20;84.50;;;;;;5055022;28;20107;-71
2023/12/13 06:18:39;;;;;;;12.68;6.70;;;9.20;84.40;;;;;;5054204;28;20659;-71
2023/12/13 06:21:25;;;;;;;16.20;9.10;;;9.20;84.40;;;;;;5053403;28;20041;-71
2023/12/13 06:23:50;;;;;;;14.70;8.35;;;9.10;84.70;;;;;;5055363;28;20374;-71
2023/12/13 06:26:16;;;;;;;12.23;6.30;;;9.20;84.70;;;;;;5053844;28;20025;-72
2023/12/13 06:28:43;;;;;;;16.15;8.80;;;9.20;84.50;;;;;;5055091;28;20115;-71
2023/12/13 06:31:09;;;;;;;21.45;10.23;;;9.20;84.40;;;;;;5054536;28;20051;-73
2023/12/13 06:33:35;;;;;;;10.60;8.48;;;9.20;84.50;;;;;;5053464;28;20453;-73
2023/12/13 06:36:02;;;;;;;9.15;7.55;;;9.20;84.70;;;;;;5053629;28;20037;-72
2023/12/13 06:38:28;;;;;;;10.57;7.45;;;9.20;84.90;;;;;;5054897;28;20104;-73
2023/12/13 06:40:54;;;;;;;14.15;7.88;;;9.20;84.90;;;;;;5053035;28;20104;-73
2023/12/13 06:43:20;;;;;;;5.00;4.03;;;9.10;85.30;;;;;;5054792;28;20108;-72
2023/12/13 06:45:46;;;;;;;9.38;6.32;;;9.10;85.60;;;;;;5053358;28;20082;-73
2023/12/13 06:48:12;;;;;;;7.47;5.00;;;9.10;85.50;;;;;;5054634;28;20047;-71
2023/12/13 06:50:38;;;;;;;6.40;4.60;;;9.10;85.40;;;;;;5052870;28;20040;-72
2023/12/13 06:53:04;;;;;;;4.75;3.30;;;9.10;85.50;;;;;;5053341;28;20040;-72
2023/12/13 06:55:30;;;;;;;4.30;2.55;;;9.10;85.90;;;;;;5054376;28;20083;-71
2023/12/13 06:57:56;;;;;;;5.65;4.57;;;9.10;86.50;;;;;;5054598;28;20037;-73
2023/12/13 07:00:26;;;;;;;2.92;2.10;;;9.10;87.30;;;;;;5052454;28;20029;-73
2023/12/13 07:02:53;;;;;;;2.90;1.38;;;9.10;87.90;;;;;;5053543;28;20033;-73
2023/12/13 07:05:20;;;;;;;3.25;1.27;;;9.10;88.80;;;;;;5053030;28;20049;-71
2023/12/13 07:07:47;;;;;;;;;;;9.10;90.30;;;;;;5036037;28;20029;-73
2023/12/13 07:10:14;;;;;;;2.30;1.70;;;9.20;91.30;;;;;;5052226;28;19971;-71
2023/12/13 07:12:40;;;;;;;1.48;0.88;;;9.20;91.40;;;;;;5054351;28;20053;-72
2023/12/13 07:15:07;;;;;;;;;;;9.20;91.90;;;;;;5053365;28;20045;-72
2023/12/13 07:17:33;;;;;;;1.35;1.17;;;9.30;91.90;;;;;;5053098;28;19999;-72
2023/12/13 07:20:00;;;;;;;6.03;1.05;;;9.30;91.90;;;;;;5036057;28;20037;-71
2023/12/13 07:22:26;;;;;;;0.82;0.40;;;9.30;92.10;;;;;;5052448;28;20033;-71
2023/12/13 07:24:52;;;;;;;1.42;0.63;;;9.40;92.60;;;;;;5052814;28;20155;-70
2023/12/13 07:27:18;;;;;;;0.93;0.73;;;9.40;93.50;;;;;;5036031;28;20033;-72
2023/12/13 07:29:44;;;;;;;0.20;0.20;;;9.40;93.90;;;;;;5052930;28;20398;-72
2023/12/13 07:32:10;;;;;;;0.82;0.45;;;9.40;93.90;;;;;;5052378;28;20083;-71
2023/12/13 07:34:36;;;;;;;0.20;0.20;;;9.40;94.00;;;;;;5053866;28;20386;-72
2023/12/13 07:37:03;;;;;;;;;;;9.50;94.30;;;;;;5054463;28;20036;-71
2023/12/13 07:39:35;;;;;;;0.10;0.10;;;9.50;95.10;;;;;;5052466;28;19921;-71
2023/12/13 07:42:01;;;;;;;0.30;0.30;;;9.50;96.00;;;;;;5053452;28;20472;-72
2023/12/13 07:44:28;;;;;;;0.10;0.10;;;9.40;96.00;;;;;;5052228;28;20059;-72
2023/12/13 07:46:54;;;;;;;0.15;0.15;;;9.50;96.20;;;;;;5053655;28;20044;-72
2023/12/13 07:49:20;;;;;;;;;;;9.50;96.20;;;;;;5054020;28;20037;-71
2023/12/13 07:51:46;;;;;;;0.22;0.20;;;9.50;96.20;;;;;;5052924;28;20358;-73
2023/12/13 07:54:16;;;;;;;0.15;0.15;;;9.50;95.50;;;;;;5051975;28;20064;-72
2023/12/13 07:56:42;;;;;;;0.10;0.10;;;9.50;95.60;;;;;;5053372;28;20060;-71
2023/12/13 07:59:08;;;;;;;0.10;0.10;;;9.50;95.40;;;;;;5052266;28;20033;-72
2023/12/13 08:01:35;;;;;;;1.88;0.65;;;9.50;95.50;;;;;;5052974;28;20416;-71
2023/12/13 08:04:01;;;;;;;0.25;0.20;;;9.50;95.40;;;;;;5051780;28;20114;-72
2023/12/13 08:06:27;;;;;;;0.20;0.20;;;9.50;95.00;;;;;;5053180;28;20029;-73
2023/12/13 08:08:53;;;;;;;1.05;1.00;;;9.60;94.70;;;;;;5053346;28;20056;-72
2023/12/13 08:11:19;;;;;;;0.10;0.10;;;9.60;94.60;;;;;;5051327;28;20060;-73
2023/12/13 08:13:45;;;;;;;1.85;0.82;;;9.60;94.20;;;;;;5035159;28;20044;-71
2023/12/13 08:16:11;;;;;;;0.43;0.30;;;9.70;94.00;;;;;;5051683;28;20040;-71
2023/12/13 08:18:38;;;;;;;4.13;1.83;;;9.70;93.60;;;;;;5053069;28;20037;-71
2023/12/13 08:21:06;;;;;;;0.45;0.17;;;9.70;92.90;;;;;;5051166;28;20059;-71
2023/12/13 08:23:33;;;;;;;0.10;0.10;;;9.80;92.60;;;;;;5052949;28;20072;-72
2023/12/13 08:25:59;;;;;;;0.10;0.10;;;9.70;92.30;;;;;;5051562;28;20087;-71
2023/12/13 08:28:25;;;;;;;0.98;0.63;;;9.80;92.10;;;;;;5051602;28;20045;-72
2023/12/13 08:30:51;;;;;;;1.17;0.75;;;9.80;92.00;;;;;;5052104;28;20033;-72
2023/12/13 08:33:17;;;;;;;1.98;1.08;;;9.80;91.80;;;;;;5051598;28;20051;-73
2023/12/13 08:35:43;;;;;;;0.88;0.75;;;9.90;91.40;;;;;;5051316;28;20033;-72
2023/12/13 08:38:09;;;;;;;1.38;0.68;;;9.90;91.20;;;;;;5052831;28;20364;-72
2023/12/13 08:40:35;;;;;;;1.17;0.75;;;9.90;90.80;;;;;;5052364;28;20079;-71
2023/12/13 08:43:01;;;;;;;0.77;0.52;;;9.90;91.80;;;;;;5052582;28;20029;-71
2023/12/13 08:45:27;;;;;;;0.55;0.55;;;9.90;90.90;;;;;;5052313;28;20540;-72
2023/12/13 08:47:53;;;;;;;1.25;0.73;;;9.90;90.70;;;;;;5052521;28;20112;-72
2023/12/13 08:50:19;;;;;;;;;;;9.90;90.70;;;;;;5052508;28;20078;-72
2023/12/13 08:52:46;;;;;;;0.20;0.17;;;9.90;90.80;;;;;;5051212;28;19913;-72
2023/12/13 08:55:12;;;;;;;2.00;1.00;;;9.90;90.50;;;;;;5052037;28;20082;-72
2023/12/13 08:57:38;;;;;;;0.90;0.40;;;9.90;90.40;;;;;;5051206;28;20033;-72
2023/12/13 09:00:24;;;;;;;0.43;0.35;;;9.80;90.30;;;;;;5052159;28;20091;-71
2023/12/13 09:02:50;;;;;;;0.17;0.17;;;9.90;90.40;;;;;;5052435;28;20106;-72
2023/12/13 09:05:16;;;;;;;0.10;0.10;;;9.90;90.40;;;;;;5050850;28;20048;-72
2023/12/13 09:07:42;;;;;;;1.35;1.17;;;9.90;90.40;;;;;;5051024;28;20040;-72
2023/12/13 09:10:08;;;;;;;0.20;0.20;;;9.90;90.30;;;;;;5051657;28;20041;-72
2023/12/13 09:12:34;;;;;;;;;;;9.90;90.30;;;;;;5052762;28;20041;-72
2023/12/13 09:15:01;;;;;;;0.50;0.40;;;9.90;90.10;;;;;;5052240;28;20023;-72
2023/12/13 09:17:27;;;;;;;0.38;0.32;;;10.00;90.00;;;;;;5034239;28;20065;-72
2023/12/13 09:19:53;;;;;;;3.53;1.33;;;10.00;90.00;;;;;;5052501;28;20528;-71
2023/12/13 09:22:19;;;;;;;5.38;3.15;;;10.00;90.00;;;;;;5050293;28;20047;-71
2023/12/13 09:24:45;;;;;;;6.32;5.22;;;10.00;90.10;;;;;;5050933;28;20140;-71
2023/12/13 09:27:11;;;;;;;;;;;10.00;90.30;;;;;;5051251;28;20406;-71
2023/12/13 09:29:37;;;;;;;2.45;1.63;;;10.00;90.50;;;;;;5034127;28;19921;-72
2023/12/13 09:32:04;;;;;;;2.58;1.02;;;10.00;90.40;;;;;;5054087;28;20045;-71
2023/12/13 09:34:30;;;;;;;0.20;0.20;;;10.00;90.50;;;;;;5056405;28;20056;-72
2023/12/13 09:36:56;;;;;;;0.57;0.30;;;10.00;90.70;;;;;;5054830;28;20048;-72
2023/12/13 09:39:22;;;;;;;0.77;0.75;;;10.00;90.60;;;;;;5056418;28;20045;-71
2023/12/13 09:42:01;;;;;;;3.05;1.13;;;10.00;90.40;;;;;;5054065;28;20057;-72
2023/12/13 09:44:27;;;;;;;1.40;1.08;;;10.00;90.20;;;;;;5054648;28;20045;-72
2023/12/13 09:46:53;;;;;;;;;;;10.10;90.30;;;;;;5038642;28;20418;-72
2023/12/13 09:49:21;;;;;;;0.45;0.40;;;10.00;90.10;;;;;;5056123;28;19927;-71
2023/12/13 09:51:49;;;;;;;1.38;1.02;;;10.10;90.10;;;;;;5054190;28;20036;-72
2023/12/13 09:54:16;;;;;;;1.88;1.55;;;10.10;89.80;;;;;;5055740;28;20044;-72
2023/12/13 09:56:42;;;;;;;1.52;1.27;;;10.10;89.80;;;;;;5054372;28;20037;-72
2023/12/13 09:59:08;;;;;;;1.85;1.48;;;10.10;89.70;;;;;;5055936;28;20051;-71
2023/12/13 10:01:34;;;;;;;0.68;0.47;;;10.10;89.00;;;;;;5055124;28;20044;-72
2023/12/13 10:04:00;;;;;;;3.00;1.45;;;10.10;89.70;;;;;;5055160;28;20522;-71
2023/12/13 10:06:26;;;;;;;1.75;0.95;;;10.10;90.10;;;;;;5055555;28;20025;-71
2023/12/13 10:08:54;;;;;;;0.68;0.52;;;10.00;90.10;;;;;;5054060;28;20115;-71
2023/12/13 10:11:21;;;;;;;1.42;0.70;;;10.00;90.10;;;;;;5053668;28;20055;-71
2023/12/13 10:13:47;;;;;;;1.40;1.05;;;10.10;90.00;;;;;;5037441;28;20075;-71
2023/12/13 10:16:16;;;;;;;1.63;0.82;;;10.10;89.90;;;;;;5054064;28;20029;-71
2023/12/13 10:18:43;;;;;;;0.57;0.35;;;10.10;90.00;;;;;;5054101;28;20090;-72
2023/12/13 10:21:10;;;;;;;0.20;0.20;;;10.00;90.30;;;;;;5053372;28;20029;-72
2023/12/13 10:23:36;;;;;;;1.40;0.63;;;10.00;90.60;;;;;;5054064;28;20044;-71
2023/12/13 10:26:03;;;;;;;2.80;2.13;;;10.00;91.00;;;;;;5053858;28;20025;-71
2023/12/13 10:28:29;;;;;;;4.45;3.17;;;10.10;90.50;;;;;;5053938;28;20037;-71
2023/12/13 10:30:56;;;;;;;4.32;3.38;;;10.10;91.20;;;;;;5054595;28;20030;-72
2023/12/13 10:33:22;;;;;;;5.57;1.83;;;10.10;90.50;;;;;;5055144;28;20033;-72
2023/12/13 10:35:50;;;;;;;4.20;2.13;;;10.20;90.10;;;;;;5053469;28;20410;-71
2023/12/13 10:38:18;;;;;;;2.03;1.13;;;10.20;89.80;;;;;;5055078;28;20045;-71
2023/12/13 10:40:44;;;;;;;1.73;0.98;;;10.30;89.60;;;;;;5052856;28;20039;-72
2023/12/13 10:43:11;;;;;;;10.65;2.78;;;10.40;89.20;;;;;;5052414;28;20044;-71
2023/12/13 10:45:45;;;;;;;2.28;1.42;;;10.40;88.80;;;;;;5053353;28;20048;-71
2023/12/13 10:48:16;;;;;;;6.47;3.03;;;10.40;88.50;;;;;;5053524;28;20399;-71
2023/12/13 10:50:48;;;;;;;4.30;2.88;;;10.40;88.30;;;;;;5052835;28;20067;-72
2023/12/13 10:53:16;;;;;;;6.97;4.35;;;10.40;88.30;;;;;;5053562;28;20036;-71
2023/12/13 10:55:44;;;;;;;2.95;2.10;;;10.40;88.40;;;;;;5053247;28;20510;-71
2023/12/13 10:58:10;;;;;;;3.22;2.05;;;10.40;88.50;;;;;;5053491;28;20041;-72
2023/12/13 11:00:37;;;;;;;4.63;2.55;;;10.30;88.70;;;;;;5053923;28;20033;-72
2023/12/13 11:03:13;;;;;;;5.18;2.35;;;10.30;88.60;;;;;;5053391;28;20049;-72
2023/12/13 11:05:40;;;;;;;1.48;0.63;;;10.30;89.60;;;;;;5052951;28;20045;-72
2023/12/13 11:08:20;;;;;;;1.30;0.82;;;10.30;90.00;;;;;;5053401;28;20487;-72
2023/12/13 11:11:07;;;;;;;1.45;0.70;;;10.30;89.70;;;;;;5052533;28;20045;-71
2023/12/13 11:14:00;;;;;;;2.88;1.20;;;10.40;89.10;;;;;;5052891;28;20030;-71
2023/12/13 11:16:27;;;;;;;5.50;2.60;;;10.40;88.90;;;;;;5054145;28;20064;-72
2023/12/13 11:19:15;;;;;;;3.25;2.15;;;10.40;88.30;;;;;;5053116;28;20582;-71
2023/12/13 11:21:41;;;;;;;2.80;1.88;;;10.40;88.80;;;;;;5052386;28;20044;-71
2023/12/13 11:24:28;;;;;;;1.52;1.13;;;10.50;88.80;;;;;;5036174;28;20127;-72
2023/12/13 11:26:58;;;;;;;1.17;1.08;;;10.40;89.30;;;;;;5053987;28;20029;-72
2023/12/13 11:29:30;;;;;;;1.35;0.82;;;10.30;89.70;;;;;;5036596;28;20403;-72
2023/12/13 11:32:14;;;;;;;1.75;0.85;;;10.30;90.20;;;;;;5052109;28;20120;-72
2023/12/13 11:35:11;;;;;;;1.13;0.98;;;10.30;90.40;;;;;;5054075;28;20033;-71
2023/12/13 11:37:39;;;;;;;3.13;1.40;;;10.40;90.10;;;;;;5053001;28;20067;-72
2023/12/13 11:40:06;;;;;;;3.97;2.20;;;10.30;89.80;;;;;;5052062;28;20047;-72
2023/12/13 11:42:32;;;;;;;3.97;1.10;;;10.40;89.60;;;;;;5053742;28;20432;-72
2023/12/13 11:44:59;;;;;;;1.25;0.95;;;10.40;89.60;;;;;;5052313;28;20044;-72
2023/12/13 11:47:25;;;;;;;3.38;2.03;;;10.30;89.70;;;;;;5052514;28;20454;-72
2023/12/13 11:49:51;;;;;;;2.22;1.60;;;10.30;90.10;;;;;;5052273;28;20040;-71
2023/12/13 11:52:17;;;;;;;3.10;1.17;;;10.30;90.00;;;;;;5051797;28;20041;-72
2023/12/13 11:54:43;;;;;;;9.13;3.17;;;10.30;89.70;;;;;;5051708;28;20028;-71
2023/12/13 11:57:28;;;;;;;2.00;1.33;;;10.30;89.60;;;;;;5035522;28;20029;-71
2023/12/13 11:59:56;;;;;;;5.45;2.28;;;10.30;89.70;;;;;;5052440;28;20049;-71
2023/12/13 12:02:22;;;;;;;2.28;1.52;;;10.30;90.50;;;;;;5052949;28;20456;-71
2023/12/13 12:05:07;;;;;;;2.80;1.95;;;10.40;89.30;;;;;;5052092;28;20089;-72
2023/12/13 12:07:33;;;;;;;1.48;0.98;;;10.40;88.50;;;;;;5052116;28;20032;-71
2023/12/13 12:10:00;;;;;;;2.85;1.33;;;10.40;88.80;;;;;;5052230;28;20037;-72
2023/12/13 12:12:26;;;;;;;;;;;10.40;88.50;;;;;;5051824;28;20059;-72
2023/12/13 12:14:52;;;;;;;1.40;1.15;;;10.40;88.60;;;;;;5035160;28;20305;-71
2023/12/13 12:20:04;;;;;;;1.20;0.77;;;10.40;88.50;;;;;;5052120;28;19947;-72
2023/12/13 12:22:33;;;;;;;1.05;0.90;;;10.30;87.80;;;;;;5034860;28;20490;-71
2023/12/13 12:24:59;;;;;;;2.20;1.77;;;10.30;88.50;;;;;;5052881;28;20064;-71
2023/12/13 12:27:26;;;;;;;;;;;10.30;87.90;;;;;;5052200;28;20100;-72
2023/12/13 12:29:53;;;;;;;4.68;2.47;;;10.30;88.80;;;;;;5051771;28;19921;-72
2023/12/13 12:32:19;;;;;;;2.13;0.98;;;10.20;88.90;;;;;;5051043;28;20033;-72
2023/12/13 12:35:05;;;;;;;3.90;1.48;;;10.20;89.40;;;;;;5053154;28;20064;-71
2023/12/13 12:37:31;;;;;;;3.40;1.40;;;10.20;89.20;;;;;;5035250;28;20032;-71
2023/12/13 12:39:57;;;;;;;9.65;7.72;;;10.30;89.20;;;;;;5051663;28;20044;-72
2023/12/13 12:42:23;;;;;;;10.77;2.45;;;10.20;88.90;;;;;;5052031;28;20029;-70
2023/12/13 12:44:49;;;;;;;5.95;3.50;;;10.30;89.00;;;;;;5051092;28;20032;-69
2023/12/13 12:47:15;;;;;;;5.63;1.80;;;10.20;89.10;;;;;;5052752;28;20040;-69
2023/12/13 12:49:42;;;;;;;6.00;2.67;;;10.20;89.20;;;;;;5050982;28;20047;-69
2023/12/13 12:52:08;;;;;;;3.20;2.28;;;10.20;89.40;;;;;;5050770;28;20033;-69
2023/12/13 12:54:35;;;;;;;2.47;1.42;;;10.20;89.40;;;;;;5052624;28;20047;-70
2023/12/13 12:57:01;;;;;;;3.20;1.65;;;10.20;89.20;;;;;;5052355;28;20044;-70